Main page
METAR-TAF:

Airports :

London, England

London City Airport

latitude: 51-30N, longitude: 000-03E, elevation: 5 m

Current weather observation

The report was made 32 minutes ago, at 20:20 UTC
Wind 8 kt from the Southeast, varying between East/Southeast and South
Temperature 20°C
Humidity 60%
Pressure 1013 hPa
Visibility 10 km or more

METAR: EGLC 242020Z AUTO 14008KT 120V180 9999 NCD 20/12 Q1013

Time: 21:52 (20:52 UTC)

Forecast

The report was made 12 hours and 57 minutes ago, at 07:55 UTC
Forecast valid from 24 at 09 UTC to 24 at 12 UTC
Wind 12 kt from the South
Visibility 10 km or more
Few clouds at a height of 4500 ft
Temporary
from 24 at 10 UTC to 24 at 12 UTC
Wind 18 kt from the South with gusts up to 28 kt

TAF: EGLC 240755Z 2409/2412 19012KT 9999 FEW045 TEMPO 2410/2412 19018G28KT

METAR-TAF

Weather observations and forecasts of more than 4000 airports (METAR and TAF reports).

The available stations are represented by yellow and red dots on the map.

Hover mouse over dot to see the name of the station.

Then click to see weather observations and forecasts.

To change the map : click on the green buttons with a black cross to zoom in, on the green button with a dash to zoom out, or on the green arrows for adjacent maps.


METAR-TAF: